Time;durP1;ratioP1;P1;durP2;ratioP2;P2;SDS_P1;SDS_P2;PMS_P1;PMS_P2;Temp;Humidity;BMP_temperature;BMP_pressure;BME280_temperature;BME280_humidity;BME280_pressure;Samples;Min_cycle;Max_cycle;Signal;HPM_P1;HPM_P2
2023/05/04 00:00:04;;;;;;;4.95;4.63;;;;;;;7.38;83.43;101699.28;7791187;18;19994;-73
2023/05/04 00:02:31;;;;;;;5.07;4.78;;;;;;;7.12;83.82;101663.31;7789327;18;20006;-73
2023/05/04 00:04:58;;;;;;;5.38;4.88;;;;;;;7.41;84.56;101705.31;7790124;18;20002;-72
2023/05/04 00:07:25;;;;;;;5.10;4.80;;;;;;;7.43;85.23;101708.75;7787912;18;20028;-72
2023/05/04 00:09:51;;;;;;;4.68;4.45;;;;;;;7.44;85.00;101713.06;7790783;18;20248;-73
2023/05/04 00:12:17;;;;;;;5.28;4.82;;;;;;;7.45;84.66;101699.13;7789627;18;20000;-71
2023/05/04 00:14:44;;;;;;;5.38;4.97;;;;;;;7.21;84.38;101656.16;7788097;18;20569;-72
2023/05/04 00:17:12;;;;;;;4.95;4.60;;;;;;;7.30;84.48;101679.47;7786861;18;20061;-72
2023/05/04 00:19:41;;;;;;;4.60;4.40;;;;;;;7.15;84.41;101657.16;7787880;18;19994;-72
2023/05/04 00:22:07;;;;;;;5.10;4.80;;;;;;;7.25;84.06;101683.91;7787291;18;20988;-73
2023/05/04 00:24:34;;;;;;;5.20;4.88;;;;;;;7.22;83.40;101678.75;7787895;18;20022;-73
2023/05/04 00:27:01;;;;;;;4.80;4.60;;;;;;;6.74;83.60;101599.78;7787338;18;20415;-73
2023/05/04 00:29:28;;;;;;;5.20;4.80;;;;;;;6.66;83.86;101601.69;7781031;18;19994;-74
2023/05/04 00:31:54;;;;;;;4.90;4.50;;;;;;;6.47;85.06;101605.56;7787760;18;20393;-71
2023/05/04 00:34:21;;;;;;;5.32;4.93;;;;;;;6.71;85.66;101620.69;7786807;18;20002;-73
2023/05/04 00:36:48;;;;;;;4.70;4.40;;;;;;;6.81;85.40;101636.16;7788388;18;20025;-72
2023/05/04 00:39:15;;;;;;;5.32;4.88;;;;;;;6.57;84.85;101589.72;7787760;18;20113;-71
2023/05/04 00:41:41;;;;;;;5.32;5.03;;;;;;;6.16;85.04;101533.22;7745823;18;19994;-73
2023/05/04 00:44:08;;;;;;;4.50;4.30;;;;;;;6.99;85.50;101660.09;7788326;18;20001;-72
2023/05/04 00:46:35;;;;;;;4.47;4.28;;;;;;;6.86;85.09;101634.34;7786954;18;20330;-72
2023/05/04 00:49:02;;;;;;;4.70;4.40;;;;;;;6.95;84.53;101652.38;7786414;18;20419;-72
2023/05/04 00:51:29;;;;;;;5.38;5.07;;;;;;;6.44;85.30;101571.75;7786047;18;20006;-71
2023/05/04 00:53:57;;;;;;;5.05;4.75;;;;;;;6.16;85.46;101552.31;7785446;18;20111;-72
2023/05/04 00:56:24;;;;;;;4.60;4.40;;;;;;;6.74;84.88;101630.22;7787922;18;20395;-73
2023/05/04 00:58:53;;;;;;;5.22;4.82;;;;;;;6.81;85.12;101649.22;7747057;18;20072;-73
2023/05/04 01:01:21;;;;;;;7.45;4.85;;;;;;;6.48;86.45;101595.13;7787781;18;20009;-72
2023/05/04 01:03:52;;;;;;;4.95;4.55;;;;;;;6.65;85.92;101627.81;7786746;18;20004;-73
2023/05/04 01:06:44;;;;;;;4.95;4.63;;;;;;;6.73;85.93;101647.59;7787212;18;20423;-70
2023/05/04 01:09:21;;;;;;;4.82;4.53;;;;;;;6.72;86.32;101642.44;7787260;18;20014;-71
2023/05/04 01:11:57;;;;;;;5.47;5.07;;;;;;;6.33;86.66;101577.16;7787301;18;20069;-72
2023/05/04 01:14:24;;;;;;;5.82;4.72;;;;;;;6.09;87.03;101542.03;7785427;18;20073;-71
2023/05/04 01:16:56;;;;;;;5.40;5.10;;;;;;;6.37;87.81;101597.97;7787889;18;20186;-71
2023/05/04 01:19:23;;;;;;;5.00;4.68;;;;;;;6.49;87.47;101603.78;7786033;18;20768;-70
2023/05/04 01:21:50;;;;;;;4.32;4.13;;;;;;;6.66;88.31;101629.53;7784356;18;20070;-71
2023/05/04 01:24:16;;;;;;;4.95;4.65;;;;;;;6.50;88.19;101621.16;7786681;18;20174;-71
2023/05/04 01:26:45;;;;;;;5.57;5.28;;;;;;;6.64;88.53;101628.72;7785569;18;20006;-71
2023/05/04 01:29:18;;;;;;;6.43;6.07;;;;;;;6.63;87.47;101627.81;7783483;18;20098;-72
2023/05/04 01:31:45;;;;;;;4.82;4.55;;;;;;;6.62;88.31;101626.13;7787606;18;19998;-72
2023/05/04 01:34:13;;;;;;;4.95;4.65;;;;;;;6.66;89.70;101629.53;7783421;18;20014;-72
2023/05/04 01:36:40;;;;;;;5.20;4.90;;;;;;;6.69;89.37;101635.53;7787176;18;20426;-70
2023/05/04 01:39:07;;;;;;;5.78;5.20;;;;;;;6.04;89.35;101525.66;7786889;18;20026;-71
2023/05/04 01:41:34;;;;;;;5.38;5.03;;;;;;;6.70;90.17;101631.19;7745390;18;20427;-70
2023/05/04 01:44:02;;;;;;;4.70;4.40;;;;;;;5.26;89.19;101397.78;7763417;18;20430;-70
2023/05/04 01:46:29;;;;;;;4.75;4.45;;;;;;;6.38;89.62;101580.56;7697032;18;19999;-70
2023/05/04 01:48:55;;;;;;;5.15;4.75;;;;;;;6.68;89.79;101630.38;7742273;18;20155;-69
2023/05/04 01:51:22;;;;;;;8.48;4.35;;;;;;;6.56;90.53;101619.28;7705581;18;19995;-68
2023/05/04 01:53:48;;;;;;;4.70;4.40;;;;;;;6.68;90.84;101632.97;7790285;18;20006;-71
2023/05/04 01:56:14;;;;;;;5.03;4.57;;;;;;;6.64;91.55;101629.56;7744469;18;19991;-68
2023/05/04 01:58:41;;;;;;;5.10;4.70;;;;;;;6.61;91.44;101627.00;7788851;18;20013;-68
2023/05/04 02:01:08;;;;;;;4.70;4.50;;;;;;;6.21;91.60;101561.78;7744278;18;20062;-68
2023/05/04 02:03:34;;;;;;;4.50;4.20;;;;;;;6.56;91.27;101631.47;7841098;18;20064;-69
2023/05/04 02:06:01;;;;;;;4.50;4.20;;;;;;;6.49;92.70;101619.44;7792471;18;20002;-70
2023/05/04 02:08:27;;;;;;;4.88;4.50;;;;;;;6.25;93.08;101579.06;7839318;18;20021;-70
2023/05/04 02:10:53;;;;;;;4.85;4.50;;;;;;;6.24;92.71;101573.00;7749404;18;20466;-68
2023/05/04 02:13:21;;;;;;;7.07;4.60;;;;;;;6.53;94.39;101626.31;7838479;18;20002;-69
2023/05/04 02:15:47;;;;;;;4.57;4.25;;;;;;;6.38;95.24;101596.19;7792659;18;20025;-70
2023/05/04 02:18:13;;;;;;;4.43;4.18;;;;;;;5.98;95.33;101537.03;7840020;18;20069;-69
2023/05/04 02:20:40;;;;;;;5.30;4.80;;;;;;;6.47;96.33;101619.47;7791313;18;20061;-69
2023/05/04 02:23:06;;;;;;;4.70;4.40;;;;;;;6.50;97.42;101624.63;7838712;18;20602;-68
2023/05/04 02:25:33;;;;;;;4.97;4.57;;;;;;;6.52;98.27;101614.16;7792685;18;19994;-72
2023/05/04 02:27:59;;;;;;;5.00;4.70;;;;;;;6.42;98.38;101597.00;7838660;18;20036;-69
2023/05/04 02:30:26;;;;;;;4.60;4.30;;;;;;;6.49;99.09;101609.00;7789560;18;20064;-68
2023/05/04 02:32:52;;;;;;;4.72;4.43;;;;;;;6.13;98.61;101562.81;7838399;18;20017;-69
2023/05/04 02:35:19;;;;;;;4.53;4.18;;;;;;;6.41;99.35;101600.47;7793070;18;20006;-70
2023/05/04 02:37:45;;;;;;;4.82;4.47;;;;;;;6.29;98.51;101572.91;7839083;18;19998;-70
2023/05/04 02:40:12;;;;;;;4.85;4.53;;;;;;;6.47;99.91;101595.13;7792113;18;20581;-71
2023/05/04 02:42:38;;;;;;;3.85;3.70;;;;;;;6.44;99.62;101582.19;7838541;18;20008;-69
2023/05/04 02:45:06;;;;;;;4.55;4.20;;;;;;;4.58;98.80;101275.03;7791773;18;20009;-71
2023/05/04 02:47:32;;;;;;;4.45;4.20;;;;;;;6.36;98.91;101559.72;7839554;18;20002;-70
2023/05/04 02:49:59;;;;;;;4.75;4.40;;;;;;;6.53;97.62;101590.66;7749504;18;19998;-69
2023/05/04 02:52:26;;;;;;;4.10;3.90;;;;;;;5.98;96.35;101488.38;7797366;18;20017;-69
2023/05/04 02:54:52;;;;;;;5.30;4.80;;;;;;;6.46;96.73;101573.44;7793226;18;20014;-69
2023/05/04 02:57:18;;;;;;;4.65;4.40;;;;;;;6.34;96.01;101558.91;7798553;18;20492;-70
2023/05/04 02:59:45;;;;;;;4.68;4.25;;;;;;;5.76;94.95;101471.44;7792524;18;20010;-72
2023/05/04 03:02:12;;;;;;;4.65;4.43;;;;;;;6.31;94.39;101579.81;7838410;18;20296;-70
2023/05/04 03:04:38;;;;;;;4.88;4.57;;;;;;;6.26;94.39;101576.44;7791540;18;20001;-70
2023/05/04 03:07:05;;;;;;;4.65;4.43;;;;;;;6.19;95.26;101575.72;7838466;18;20028;-69
2023/05/04 03:09:31;;;;;;;4.80;4.45;;;;;;;6.14;94.28;101574.09;7792177;18;20588;-70
2023/05/04 03:11:58;;;;;;;4.50;4.30;;;;;;;5.98;94.53;101571.75;7859085;18;20016;-71
2023/05/04 03:14:25;;;;;;;4.20;3.95;;;;;;;5.60;95.29;101517.75;7803366;18;19996;-69
2023/05/04 03:16:51;;;;;;;4.45;4.25;;;;;;;5.90;96.23;101568.41;7839226;18;20009;-71
2023/05/04 03:19:18;;;;;;;4.78;4.38;;;;;;;5.89;96.95;101571.91;7789554;18;20017;-71
2023/05/04 03:21:45;;;;;;;4.78;4.38;;;;;;;5.40;96.82;101494.69;7838498;18;20473;-69
2023/05/04 03:24:12;;;;;;;4.97;4.57;;;;;;;5.69;97.68;101556.66;7791080;18;20113;-69
2023/05/04 03:26:38;;;;;;;4.95;4.65;;;;;;;5.75;97.57;101572.19;7838673;18;20018;-69
2023/05/04 03:29:05;;;;;;;5.07;4.68;;;;;;;5.68;99.12;101564.50;7788682;18;20002;-70
2023/05/04 03:31:31;;;;;;;4.22;4.03;;;;;;;5.67;99.12;101560.16;7837820;18;20028;-70
2023/05/04 03:33:57;;;;;;;5.22;4.60;;;;;;;5.65;99.06;101559.31;7791036;18;20312;-70
2023/05/04 03:36:24;;;;;;;4.43;4.22;;;;;;;5.53;99.49;101545.66;7840089;18;19993;-71
2023/05/04 03:38:50;;;;;;;4.22;4.03;;;;;;;5.21;100.00;101496.75;7790633;18;20009;-70
2023/05/04 03:41:17;;;;;;;3.90;3.70;;;;;;;5.52;100.00;101546.53;7838247;18;19998;-70
2023/05/04 03:43:43;;;;;;;4.63;4.32;;;;;;;5.18;100.00;101495.06;7789251;18;20064;-69
2023/05/04 03:46:10;;;;;;;4.85;4.45;;;;;;;5.53;100.00;101558.69;7838633;18;20453;-69
2023/05/04 03:48:36;;;;;;;4.50;4.25;;;;;;;5.45;100.00;101552.72;7749432;18;20013;-69
2023/05/04 03:51:03;;;;;;;4.68;4.38;;;;;;;5.47;100.00;101558.78;7837625;18;20034;-69
2023/05/04 03:53:29;;;;;;;4.35;4.13;;;;;;;5.42;100.00;101549.34;7789995;18;19990;-69
2023/05/04 03:55:56;;;;;;;5.05;4.65;;;;;;;5.47;100.00;101563.13;7838954;18;20040;-69
2023/05/04 03:58:22;;;;;;;4.00;3.80;;;;;;;5.14;100.00;101510.75;7789909;18;20278;-69
2023/05/04 04:00:49;;;;;;;5.25;4.78;;;;;;;5.05;100.00;101495.28;7838796;18;20001;-69
2023/05/04 04:03:15;;;;;;;4.13;3.92;;;;;;;5.50;100.00;101569.13;7790584;18;20565;-70
2023/05/04 04:05:42;;;;;;;4.05;3.85;;;;;;;5.49;100.00;101575.25;7796862;18;20013;-70
2023/05/04 04:08:08;;;;;;;4.32;4.03;;;;;;;5.49;100.00;101575.25;7790432;18;20017;-70
2023/05/04 04:10:37;;;;;;;5.53;4.15;;;;;;;5.51;100.00;101577.78;7838664;18;20060;-69
2023/05/04 04:13:04;;;;;;;4.32;4.13;;;;;;;5.53;100.00;101576.91;7789959;18;19998;-70
2023/05/04 04:15:30;;;;;;;4.00;3.80;;;;;;;5.54;100.00;101578.59;7837933;18;20008;-70
2023/05/04 04:17:56;;;;;;;7.47;4.00;;;;;;;5.25;100.00;101533.97;7791369;18;20022;-70
2023/05/04 04:20:23;;;;;;;4.45;4.15;;;;;;;5.59;100.00;101574.19;7838423;18;20008;-70
2023/05/04 04:22:50;;;;;;;4.78;4.47;;;;;;;5.27;100.00;101524.41;7789648;18;20069;-71
2023/05/04 04:25:17;;;;;;;5.28;3.92;;;;;;;5.02;100.00;101474.53;7839411;18;20013;-70
2023/05/04 04:27:43;;;;;;;4.35;4.05;;;;;;;5.51;100.00;101550.03;7788767;18;20010;-70
2023/05/04 04:30:11;;;;;;;5.72;3.80;;;;;;;5.74;100.00;101577.41;7838959;18;20002;-71
2023/05/04 04:32:37;;;;;;;4.10;3.80;;;;;;;5.85;100.00;101585.88;7745072;18;20061;-68
2023/05/04 04:35:05;;;;;;;11.10;4.53;;;;;;;5.57;100.00;101536.91;7839728;18;19997;-67
2023/05/04 04:37:32;;;;;;;4.63;4.32;;;;;;;5.85;100.00;101578.06;7790500;18;20006;-70
2023/05/04 04:39:58;;;;;;;4.60;4.30;;;;;;;6.13;100.00;101606.22;7838077;18;20006;-69
2023/05/04 04:42:25;;;;;;;4.25;3.97;;;;;;;6.22;100.00;101598.25;7791038;18;20009;-71
2023/05/04 04:44:53;;;;;;;6.95;4.22;;;;;;;6.37;100.00;101603.16;7838193;18;20060;-69
2023/05/04 04:47:19;;;;;;;4.45;4.15;;;;;;;5.51;100.00;101419.88;7790530;18;20006;-69
2023/05/04 04:49:46;;;;;;;5.25;4.40;;;;;;;7.03;99.48;101606.09;7838717;18;20004;-69
2023/05/04 04:52:13;;;;;;;6.05;4.55;;;;;;;7.11;98.33;101551.09;7749535;18;19990;-69
2023/05/04 04:54:39;;;;;;;5.20;4.80;;;;;;;8.01;96.97;101607.16;7838235;18;20006;-70
2023/05/04 04:57:09;;;;;;;5.88;5.00;;;;;;;7.98;93.99;101551.47;7789309;18;19998;-69
2023/05/04 04:59:36;;;;;;;4.55;4.22;;;;;;;7.89;91.52;101498.59;7796965;18;20383;-69
2023/05/04 05:02:03;;;;;;;5.03;4.53;;;;;;;8.46;89.38;101575.41;7790218;18;20006;-69
2023/05/04 05:04:29;;;;;;;5.30;4.90;;;;;;;8.72;88.57;101575.53;7795840;18;20002;-70
2023/05/04 05:06:56;;;;;;;5.05;4.75;;;;;;;9.14;86.77;101574.22;7790661;18;20589;-69
2023/05/04 05:09:23;;;;;;;4.90;4.60;;;;;;;9.69;85.99;101579.41;7836565;18;20012;-70
2023/05/04 05:11:49;;;;;;;5.00;4.70;;;;;;;10.37;83.29;101581.34;7789406;18;19994;-69
2023/05/04 05:14:15;;;;;;;4.97;4.68;;;;;;;11.01;80.90;101561.41;7837410;18;20064;-70
2023/05/04 05:16:42;;;;;;;5.53;5.05;;;;;;;11.69;78.00;101542.81;7790131;18;20048;-69
2023/05/04 05:19:08;;;;;;;7.13;5.47;;;;;;;11.98;75.05;101462.66;7837769;18;19993;-69
2023/05/04 05:21:35;;;;;;;5.53;5.22;;;;;;;12.72;70.81;101457.38;7791316;18;20072;-70
2023/05/04 05:24:01;;;;;;;6.05;5.55;;;;;;;13.21;67.56;101382.03;7839800;18;20461;-69
2023/05/04 05:26:28;;;;;;;7.05;6.32;;;;;;;13.13;63.05;101235.75;7793472;18;20002;-68
2023/05/04 05:28:54;;;;;;;6.32;5.88;;;;;;;13.27;62.16;101228.84;7837644;18;20029;-69
2023/05/04 05:31:21;;;;;;;7.18;6.53;;;;;;;12.51;60.90;101042.47;7792022;18;19998;-70
2023/05/04 05:33:47;;;;;;;7.03;6.50;;;;;;;13.17;60.57;101102.03;7836923;18;20492;-69
2023/05/04 05:36:14;;;;;;;7.20;6.50;;;;;;;13.40;60.38;101124.44;7793407;18;20002;-70
2023/05/04 05:38:40;;;;;;;6.82;6.32;;;;;;;13.33;59.70;101126.59;7839027;18;20009;-70
2023/05/04 05:41:08;;;;;;;7.22;6.57;;;;;;;13.35;59.97;101137.06;7790297;18;20002;-70
2023/05/04 05:43:37;;;;;;;8.07;6.55;;;;;;;13.33;60.01;101128.38;7837509;18;19997;-70
2023/05/04 05:46:05;;;;;;;6.75;6.15;;;;;;;13.39;59.72;101100.81;7790859;18;20489;-70
2023/05/04 05:48:32;;;;;;;6.70;6.25;;;;;;;13.19;59.70;101094.88;7839072;18;20128;-69
2023/05/04 05:50:59;;;;;;;6.57;6.07;;;;;;;12.33;60.06;100989.91;7790732;18;19998;-69
2023/05/04 05:53:25;;;;;;;6.57;5.97;;;;;;;13.20;60.39;101135.25;7839703;18;20002;-70
2023/05/04 05:55:52;;;;;;;7.03;6.32;;;;;;;13.23;59.53;101119.25;7750001;18;20176;-71
2023/05/04 05:58:18;;;;;;;6.22;5.72;;;;;;;12.88;59.95;101051.78;7838336;18;20001;-69
2023/05/04 06:00:45;;;;;;;5.95;5.45;;;;;;;13.18;59.10;101099.28;7790099;18;20065;-71
2023/05/04 06:03:11;;;;;;;9.35;6.50;;;;;;;13.12;59.32;101090.88;7838217;18;19997;-68
2023/05/04 06:05:38;;;;;;;6.10;5.70;;;;;;;13.06;59.46;101083.31;7790776;18;20030;-68
2023/05/04 06:08:04;;;;;;;7.03;6.43;;;;;;;12.78;59.01;101062.00;7796338;18;20000;-69
2023/05/04 06:10:31;;;;;;;6.47;6.00;;;;;;;10.96;59.47;100757.13;7790580;18;20407;-69
2023/05/04 06:12:57;;;;;;;8.00;6.65;;;;;;;13.15;59.34;101098.63;7839296;18;20009;-69
2023/05/04 06:15:23;;;;;;;6.50;6.05;;;;;;;12.66;59.53;101022.34;7784962;18;19998;-70
2023/05/04 06:17:50;;;;;;;6.45;5.95;;;;;;;12.97;59.32;101053.09;7796784;18;20022;-71
2023/05/04 06:20:17;;;;;;;6.60;6.10;;;;;;;12.98;58.63;101031.06;7790991;18;20005;-71
2023/05/04 06:22:43;;;;;;;7.97;6.18;;;;;;;12.79;58.71;100994.38;7795723;18;19998;-71
2023/05/04 06:25:10;;;;;;;7.55;6.50;;;;;;;13.26;58.98;101071.66;7790582;18;20427;-71
2023/05/04 06:27:36;;;;;;;8.88;6.20;;;;;;;13.14;58.50;101025.75;7836525;18;20081;-71
2023/05/04 06:30:03;;;;;;;6.35;5.85;;;;;;;13.40;57.96;101039.25;7788961;18;19998;-71
2023/05/04 06:32:31;;;;;;;6.20;5.70;;;;;;;13.14;57.22;100949.34;7797007;18;20064;-71
2023/05/04 06:34:58;;;;;;;6.47;5.88;;;;;;;13.22;58.02;101014.78;7789064;18;20088;-71
2023/05/04 06:37:25;;;;;;;6.88;5.55;;;;;;;13.13;57.77;101013.53;7796253;18;19993;-70
2023/05/04 06:39:52;;;;;;;6.72;6.18;;;;;;;12.88;57.87;100964.88;7791626;18;20001;-72
2023/05/04 06:42:18;;;;;;;6.65;5.65;;;;;;;13.50;58.66;101086.06;7838672;18;20029;-72
2023/05/04 06:44:44;;;;;;;7.40;6.38;;;;;;;13.24;56.88;100958.41;7792497;18;20009;-71
2023/05/04 06:47:11;;;;;;;5.63;5.32;;;;;;;13.36;57.73;101007.78;7839726;18;20079;-70
2023/05/04 06:49:37;;;;;;;6.13;5.63;;;;;;;13.46;56.88;100994.91;7790711;18;20056;-70
2023/05/04 06:52:04;;;;;;;5.88;5.47;;;;;;;12.76;56.96;100874.25;7838391;18;20071;-70
2023/05/04 06:54:31;;;;;;;6.72;6.18;;;;;;;13.27;56.60;100944.19;7751197;18;20494;-70
2023/05/04 06:56:57;;;;;;;6.03;5.45;;;;;;;13.79;55.77;101007.03;7838598;18;20001;-71
2023/05/04 06:59:24;;;;;;;5.95;5.45;;;;;;;13.98;55.22;100993.53;7790775;18;20006;-70
2023/05/04 07:01:50;;;;;;;6.18;5.78;;;;;;;13.98;55.35;100979.50;7838893;18;20590;-70
2023/05/04 07:04:20;;;;;;;10.15;5.78;;;;;;;14.05;54.50;100962.31;7792420;18;20018;-71
2023/05/04 07:06:47;;;;;;;7.28;5.47;;;;;;;14.12;54.55;100990.88;7798936;18;20000;-70
2023/05/04 07:09:16;;;;;;;6.57;5.47;;;;;;;14.20;55.86;101035.28;7792533;18;20012;-70
2023/05/04 07:11:43;;;;;;;6.28;5.80;;;;;;;14.11;55.17;100972.50;7838970;18;20076;-70
2023/05/04 07:14:10;;;;;;;5.95;5.55;;;;;;;13.60;54.13;100849.03;7791672;18;20010;-70
2023/05/04 07:16:37;;;;;;;6.35;5.75;;;;;;;14.33;53.97;100978.16;7840065;18;20005;-72
2023/05/04 07:19:03;;;;;;;5.70;5.40;;;;;;;13.92;54.97;100942.00;7750894;18;20001;-71
2023/05/04 07:21:30;;;;;;;8.05;6.03;;;;;;;14.45;54.25;100994.13;7839672;18;19998;-70
2023/05/04 07:23:56;;;;;;;7.47;5.95;;;;;;;14.45;52.84;100936.91;7791496;18;20070;-70
2023/05/04 07:26:23;;;;;;;5.60;5.13;;;;;;;14.35;53.33;100943.69;7799538;18;20009;-71
2023/05/04 07:28:49;;;;;;;6.10;5.70;;;;;;;14.48;52.97;100956.97;7750364;18;20006;-70
2023/05/04 07:31:16;;;;;;;6.07;5.68;;;;;;;14.48;52.08;100914.72;7840335;18;20060;-71
2023/05/04 07:33:42;;;;;;;6.07;5.63;;;;;;;14.57;52.71;100927.34;7791234;18;20001;-72
2023/05/04 07:36:08;;;;;;;5.80;5.40;;;;;;;14.44;52.06;100907.94;7797790;18;20035;-71
2023/05/04 07:38:35;;;;;;;7.25;6.00;;;;;;;14.66;52.15;100958.44;7750738;18;20029;-73
2023/05/04 07:41:02;;;;;;;6.00;5.60;;;;;;;15.00;52.09;101010.91;7840227;18;20020;-72
2023/05/04 07:43:28;;;;;;;5.90;5.55;;;;;;;15.07;51.72;100997.16;7790790;18;19990;-72
2023/05/04 07:45:55;;;;;;;6.68;5.70;;;;;;;14.91;51.75;100941.84;7839498;18;20005;-72
2023/05/04 07:48:21;;;;;;;5.90;5.53;;;;;;;15.18;52.11;101000.91;7792304;18;20005;-72
2023/05/04 07:50:52;;;;;;;6.05;5.63;;;;;;;14.84;51.52;100914.13;7839254;18;20000;-72
2023/05/04 07:53:19;;;;;;;6.38;5.93;;;;;;;15.48;51.35;101043.78;7791110;18;19998;-71
2023/05/04 07:55:46;;;;;;;6.40;5.90;;;;;;;15.38;51.14;101026.84;7798700;18;20002;-71
2023/05/04 07:58:14;;;;;;;5.93;5.60;;;;;;;15.64;51.02;101027.72;7792096;18;20081;-71
2023/05/04 08:00:40;;;;;;;6.80;6.07;;;;;;;15.83;50.91;101040.56;7839087;18;20196;-72
2023/05/04 08:03:07;;;;;;;5.80;5.30;;;;;;;15.91;50.54;101046.19;7790613;18;19998;-71
2023/05/04 08:05:33;;;;;;;6.15;5.75;;;;;;;15.83;50.05;100992.94;7839316;18;20001;-72
2023/05/04 08:08:00;;;;;;;7.97;5.88;;;;;;;16.07;49.59;101016.00;7791417;18;20049;-74
2023/05/04 08:10:27;;;;;;;6.20;5.57;;;;;;;16.11;50.08;101038.66;7839746;18;20540;-72
2023/05/04 08:12:54;;;;;;;5.93;5.63;;;;;;;15.83;50.15;101008.81;7750642;18;20530;-72
2023/05/04 08:15:21;;;;;;;6.25;5.80;;;;;;;16.18;49.79;101055.81;7840048;18;20023;-72
2023/05/04 08:17:47;;;;;;;5.95;5.55;;;;;;;16.64;50.57;101123.25;7791721;18;20614;-71
2023/05/04 08:20:14;;;;;;;10.13;6.07;;;;;;;16.77;49.80;101091.41;7841299;18;20017;-70
2023/05/04 08:22:40;;;;;;;6.90;6.30;;;;;;;16.41;48.43;100956.16;7749367;18;20009;-71
2023/05/04 08:25:08;;;;;;;6.30;5.70;;;;;;;16.84;48.49;101053.78;7840619;18;20324;-70
2023/05/04 08:27:34;;;;;;;5.97;5.60;;;;;;;16.90;48.96;101063.09;7791729;18;20017;-69
2023/05/04 08:30:01;;;;;;;12.25;6.50;;;;;;;16.40;48.55;100935.94;7840803;18;19997;-70
2023/05/04 08:32:27;;;;;;;6.20;5.80;;;;;;;17.40;48.34;101102.75;7751155;18;20022;-71
2023/05/04 08:34:56;;;;;;;9.93;6.20;;;;;;;17.68;47.63;101098.84;7839842;18;20637;-71
2023/05/04 08:37:22;;;;;;;6.28;5.90;;;;;;;17.85;47.50;101108.25;7789150;18;20078;-71
2023/05/04 08:39:49;;;;;;;6.60;6.20;;;;;;;17.05;47.38;100963.84;7840086;18;20006;-73
2023/05/04 08:42:30;;;;;;;8.00;7.30;;;;;;;17.50;47.48;101056.84;7751584;18;19997;-71
2023/05/04 08:44:57;;;;;;;8.05;6.47;;;;;;;17.63;47.89;101077.13;7797137;18;20002;-71
2023/05/04 08:47:25;;;;;;;6.97;5.97;;;;;;;17.59;47.73;101097.75;7750164;18;20364;-71
2023/05/04 08:49:55;;;;;;;7.20;6.43;;;;;;;17.75;47.62;101113.38;7796560;18;20431;-72
2023/05/04 08:52:23;;;;;;;6.88;6.38;;;;;;;17.53;47.67;101048.63;7790461;18;20002;-72
2023/05/04 08:54:59;;;;;;;7.07;6.35;;;;;;;17.74;47.97;101095.75;7838046;18;20072;-72
2023/05/04 08:57:26;;;;;;;7.22;6.63;;;;;;;17.92;48.14;101147.50;7790551;18;20360;-75
2023/05/04 08:59:54;;;;;;;8.30;6.60;;;;;;;18.04;48.10;101151.03;7798854;18;20004;-71
2023/05/04 09:02:22;;;;;;;7.05;6.30;;;;;;;18.28;47.48;101145.63;7792791;18;20007;-71
2023/05/04 09:04:50;;;;;;;6.45;6.05;;;;;;;18.41;48.27;101195.16;7828049;18;20059;-71
2023/05/04 09:07:20;;;;;;;8.48;6.97;;;;;;;18.15;47.76;101128.94;7751064;18;20056;-71
2023/05/04 09:09:49;;;;;;;7.00;6.30;;;;;;;18.67;47.27;101191.31;7836717;18;20414;-71
2023/05/04 09:12:17;;;;;;;7.63;7.03;;;;;;;18.99;47.13;101205.72;7792342;18;20654;-71
2023/05/04 09:14:45;;;;;;;6.70;6.20;;;;;;;18.77;46.63;101132.94;7797622;18;20001;-71
2023/05/04 09:17:15;;;;;;;6.40;5.90;;;;;;;18.60;47.25;101130.75;7792541;18;20520;-71
2023/05/04 09:19:44;;;;;;;7.63;6.80;;;;;;;18.63;46.55;101117.25;7838061;18;20009;-71
2023/05/04 09:22:16;;;;;;;6.57;5.97;;;;;;;18.59;47.40;101155.66;7788878;18;20179;-71
2023/05/04 09:24:43;;;;;;;6.78;6.00;;;;;;;18.57;47.90;101169.06;7838857;18;19997;-70
2023/05/04 09:27:10;;;;;;;7.15;6.55;;;;;;;18.91;47.65;101177.91;7790864;18;19998;-71
2023/05/04 09:29:39;;;;;;;7.25;6.65;;;;;;;19.04;46.99;101161.84;7839541;18;20060;-72
2023/05/04 09:32:11;;;;;;;6.82;6.22;;;;;;;18.96;46.50;101145.63;7749655;18;19998;-70
2023/05/04 09:34:52;;;;;;;7.95;7.15;;;;;;;19.24;46.60;101151.38;7798276;18;20048;-69
2023/05/04 09:37:20;;;;;;;7.55;7.07;;;;;;;18.88;47.01;101121.47;7789944;18;20613;-70
2023/05/04 09:39:58;;;;;;;7.55;6.90;;;;;;;19.16;47.34;101170.63;7798239;18;20731;-70
2023/05/04 09:42:25;;;;;;;7.20;6.70;;;;;;;19.48;47.36;101229.22;7791215;18;19998;-70
2023/05/04 09:45:00;;;;;;;7.63;6.93;;;;;;;19.30;46.42;101143.75;7796434;18;20002;-72
2023/05/04 09:47:38;;;;;;;7.30;6.70;;;;;;;19.79;46.93;101215.25;7790638;18;20002;-72
2023/05/04 09:50:16;;;;;;;7.85;7.22;;;;;;;19.97;45.42;101170.25;7839666;18;20001;-70
2023/05/04 09:52:47;;;;;;;11.07;7.00;;;;;;;19.85;46.33;101186.28;7749159;18;20006;-70
2023/05/04 09:55:16;;;;;;;7.72;6.95;;;;;;;19.81;45.74;101128.91;7838383;18;20873;-70
2023/05/04 09:57:44;;;;;;;7.78;7.18;;;;;;;19.77;45.03;101116.00;7789957;18;20006;-71
2023/05/04 10:00:13;;;;;;;8.18;7.47;;;;;;;20.06;45.00;101132.97;7796203;18;20665;-71
2023/05/04 10:02:39;;;;;;;7.63;6.95;;;;;;;20.15;45.01;101138.53;7789739;18;20005;-70
2023/05/04 10:05:08;;;;;;;8.38;7.28;;;;;;;20.25;45.41;101160.75;7839552;18;20689;-71
2023/05/04 10:07:35;;;;;;;7.30;6.60;;;;;;;19.95;44.35;101063.81;7792324;18;20070;-73
2023/05/04 10:10:02;;;;;;;7.22;6.72;;;;;;;20.41;43.83;101112.28;7797558;18;20001;-72
2023/05/04 10:12:28;;;;;;;6.88;6.38;;;;;;;20.61;44.22;101132.72;7750640;18;20458;-72
2023/05/04 10:14:55;;;;;;;7.53;6.75;;;;;;;20.76;43.47;101100.34;7841555;18;20355;-70
2023/05/04 10:17:50;;;;;;;10.75;6.50;;;;;;;21.09;42.17;101118.69;7752085;18;20057;-71
2023/05/04 10:20:28;;;;;;;7.25;6.60;;;;;;;21.08;42.06;101092.13;7799579;18;20001;-71
2023/05/04 10:23:11;;;;;;;6.88;6.38;;;;;;;21.03;42.29;101083.69;7791936;18;20049;-72
2023/05/04 10:25:56;;;;;;;7.88;7.07;;;;;;;20.90;42.89;101062.59;7840671;18;19997;-72
2023/05/04 10:28:39;;;;;;;7.40;6.70;;;;;;;21.18;43.45;101137.50;7750091;18;20005;-71
2023/05/04 10:31:08;;;;;;;7.35;6.80;;;;;;;21.12;42.80;101090.84;7840997;18;20021;-70
2023/05/04 10:33:39;;;;;;;9.60;6.95;;;;;;;21.23;42.21;101085.41;7750597;18;20005;-70
2023/05/04 10:36:06;;;;;;;7.05;6.63;;;;;;;21.49;42.00;101111.56;7800392;18;20442;-70
2023/05/04 10:38:34;;;;;;;7.28;6.68;;;;;;;21.36;42.65;101073.59;7792678;18;20046;-71
2023/05/04 10:41:13;;;;;;;8.73;6.95;;;;;;;21.42;41.72;101049.81;7797647;18;20490;-72
2023/05/04 10:43:41;;;;;;;7.18;6.68;;;;;;;21.15;42.20;101009.66;7788651;18;20014;-69
2023/05/04 10:46:21;;;;;;;7.32;6.70;;;;;;;21.60;43.15;101129.28;7840901;18;20021;-70
2023/05/04 10:48:49;;;;;;;7.30;6.80;;;;;;;21.78;42.74;101110.69;7750669;18;20009;-71
2023/05/04 10:51:25;;;;;;;7.05;6.55;;;;;;;21.70;41.59;101041.94;7797845;18;20516;-70
2023/05/04 10:54:01;;;;;;;7.03;6.40;;;;;;;22.01;40.72;101071.97;7791541;18;20032;-70
2023/05/04 10:56:27;;;;;;;7.55;6.95;;;;;;;22.05;41.32;101107.25;7839849;18;20001;-70
2023/05/04 10:58:54;;;;;;;7.60;7.00;;;;;;;21.54;40.93;100980.28;7792420;18;20002;-70
2023/05/04 11:01:23;;;;;;;6.93;6.53;;;;;;;21.80;41.87;101071.31;7840310;18;20052;-70
2023/05/04 11:03:51;;;;;;;7.65;7.05;;;;;;;22.06;40.33;101042.97;7790685;18;19997;-71
2023/05/04 11:06:21;;;;;;;7.40;6.82;;;;;;;21.87;40.53;101006.47;7841562;18;20005;-70
2023/05/04 11:09:01;;;;;;;6.95;6.45;;;;;;;21.94;41.20;101035.28;7790867;18;20009;-70
2023/05/04 11:11:27;;;;;;;6.60;6.13;;;;;;;22.17;41.62;101078.50;7840308;18;19997;-70
2023/05/04 11:13:55;;;;;;;6.85;6.30;;;;;;;20.88;41.44;100851.16;7791217;18;20232;-70
2023/05/04 11:16:23;;;;;;;7.32;6.60;;;;;;;22.12;40.45;100985.41;7839798;18;20002;-71
2023/05/04 11:18:52;;;;;;;6.93;6.43;;;;;;;21.99;40.48;101000.91;7790544;18;20002;-70
2023/05/04 11:21:25;;;;;;;8.55;6.80;;;;;;;22.30;41.08;101055.00;7840460;18;20422;-70
2023/05/04 11:23:59;;;;;;;6.63;6.15;;;;;;;22.51;40.04;101028.00;7790849;18;20004;-71
2023/05/04 11:26:27;;;;;;;6.22;5.82;;;;;;;22.68;37.65;100938.91;7840792;18;20009;-70
2023/05/04 11:28:53;;;;;;;6.50;5.85;;;;;;;22.48;37.97;100906.09;7748516;18;20053;-70